메인 페이지
METAR-TAF:

METAR-TAF

공항 :

카불 국제공항

카불, 아프가니스탄

위도: 34-38N, 경도: 069-12E, 고도: 1789m

현재 날씨관측

예보는 54분 전, 14:50시(UTC)에 발표되었습니다.
14kt
온도 29°C
습도 12%
기압 1010 hPa
시정 10km 이상
1500m 미만 상공 구름 및 적란운 없음

METAR: OAKB 191450Z 01014KT CAVOK 29/M03 Q1010 NOSIG RMK A2983 BLU BLU

시각: 20:14 (15:44 UTC)

예보

예보는 4 시간 39분 전, 11:05시(UTC)에 발표되었습니다.
예보 대상 시간: 19일 12시부터 20일 12시까지 (UTC)
12kt
시정 10km 이상
1500m 미만 상공 구름 및 적란운 없음
전환 중
19일 13시부터 19일 15시까지 (UTC)
북북동15kt, 순간 최대 풍속 25kt
전환 중
19일 18시부터 19일 20시까지 (UTC)
여러 방향의 바람 2kt
전환 중
20일 10시부터 20일 12시까지 (UTC)
12kt

TAF: OAKB 191105Z 1912/2012 01012KT CAVOK BECMG 1913/1915 03015G25KT BECMG 1918/1920 VRB02KT BECMG 2010/2012 01012KT

4,000개 이상의 공항 관측 자료 및 예보 (METAR 및 TAF 보고).

지도상에서 검색 가능한 기상관측소가 노란 점과 빨간 점으로 표시되어 있습니다.

기상관측소 명을 보려면 표시 위로 마우스를 이동하세요.

날씨 관측과 예보를 보려면 클릭하세요.

지도 변경 : 확대하려면 엑스 표시가 있는 녹색 버튼, 축소하려면 빼기 표시가 있는 녹색 버튼, 다음 페이지의 지도를 보려면 녹색 화살표를 클릭하세요.


METAR-TAF: